sensor_id;sensor_type;location;lat;lon;timestamp;temperature;humidity
9772;DHT22;4925;52.588;13.370;2023-07-02T00:01:41;18.10;99.90
9772;DHT22;4925;52.588;13.370;2023-07-02T00:04:06;18.10;99.90
9772;DHT22;4925;52.588;13.370;2023-07-02T00:06:34;18.10;99.90
9772;DHT22;4925;52.588;13.370;2023-07-02T00:09:06;18.10;99.90
9772;DHT22;4925;52.588;13.370;2023-07-02T00:11:31;18.10;99.90
9772;DHT22;4925;52.588;13.370;2023-07-02T00:13:57;18.10;99.90
9772;DHT22;4925;52.588;13.370;2023-07-02T00:16:23;18.00;99.90
9772;DHT22;4925;52.588;13.370;2023-07-02T00:18:48;18.00;99.90
9772;DHT22;4925;52.588;13.370;2023-07-02T00:21:18;18.10;99.90
9772;DHT22;4925;52.588;13.370;2023-07-02T00:23:44;18.10;99.90
9772;DHT22;4925;52.588;13.370;2023-07-02T00:26:10;18.00;99.90
9772;DHT22;4925;52.588;13.370;2023-07-02T00:28:35;18.00;99.90
9772;DHT22;4925;52.588;13.370;2023-07-02T00:31:01;18.00;99.90
9772;DHT22;4925;52.588;13.370;2023-07-02T00:33:27;18.00;99.90
9772;DHT22;4925;52.588;13.370;2023-07-02T00:35:54;18.00;99.90
9772;DHT22;4925;52.588;13.370;2023-07-02T00:38:21;17.90;99.90
9772;DHT22;4925;52.588;13.370;2023-07-02T00:40:46;17.90;99.90
9772;DHT22;4925;52.588;13.370;2023-07-02T00:43:12;17.90;99.90
9772;DHT22;4925;52.588;13.370;2023-07-02T00:45:41;18.00;99.90
9772;DHT22;4925;52.588;13.370;2023-07-02T00:48:07;18.00;99.90
9772;DHT22;4925;52.588;13.370;2023-07-02T00:50:32;18.00;99.90
9772;DHT22;4925;52.588;13.370;2023-07-02T00:52:58;18.00;99.90
9772;DHT22;4925;52.588;13.370;2023-07-02T00:55:24;17.90;99.90
9772;DHT22;4925;52.588;13.370;2023-07-02T00:57:50;17.90;99.90
9772;DHT22;4925;52.588;13.370;2023-07-02T01:00:16;17.90;99.90
9772;DHT22;4925;52.588;13.370;2023-07-02T01:02:42;18.00;99.90
9772;DHT22;4925;52.588;13.370;2023-07-02T01:05:15;18.00;99.90
9772;DHT22;4925;52.588;13.370;2023-07-02T01:07:41;18.00;99.90
9772;DHT22;4925;52.588;13.370;2023-07-02T01:10:07;18.00;99.90
9772;DHT22;4925;52.588;13.370;2023-07-02T01:12:34;18.00;99.90
9772;DHT22;4925;52.588;13.370;2023-07-02T01:15:02;18.00;99.90
9772;DHT22;4925;52.588;13.370;2023-07-02T01:17:31;18.00;99.90
9772;DHT22;4925;52.588;13.370;2023-07-02T01:20:06;18.00;99.90
9772;DHT22;4925;52.588;13.370;2023-07-02T01:22:32;18.00;99.90
9772;DHT22;4925;52.588;13.370;2023-07-02T01:24:59;18.00;99.90
9772;DHT22;4925;52.588;13.370;2023-07-02T01:27:28;18.00;99.90
9772;DHT22;4925;52.588;13.370;2023-07-02T01:29:54;18.00;99.90
9772;DHT22;4925;52.588;13.370;2023-07-02T01:32:20;18.10;99.90
9772;DHT22;4925;52.588;13.370;2023-07-02T01:34:46;18.10;99.90
9772;DHT22;4925;52.588;13.370;2023-07-02T01:37:18;18.20;99.90
9772;DHT22;4925;52.588;13.370;2023-07-02T01:39:44;18.10;99.90
9772;DHT22;4925;52.588;13.370;2023-07-02T01:42:11;18.00;99.90
9772;DHT22;4925;52.588;13.370;2023-07-02T01:44:38;18.00;99.90
9772;DHT22;4925;52.588;13.370;2023-07-02T01:47:04;18.10;99.90
9772;DHT22;4925;52.588;13.370;2023-07-02T01:49:30;18.00;99.90
9772;DHT22;4925;52.588;13.370;2023-07-02T01:51:56;18.00;99.90
9772;DHT22;4925;52.588;13.370;2023-07-02T01:54:24;18.00;99.90
9772;DHT22;4925;52.588;13.370;2023-07-02T01:56:50;17.90;99.90
9772;DHT22;4925;52.588;13.370;2023-07-02T01:59:16;17.80;99.90
9772;DHT22;4925;52.588;13.370;2023-07-02T02:01:44;17.80;99.90
9772;DHT22;4925;52.588;13.370;2023-07-02T02:04:11;17.80;99.90
9772;DHT22;4925;52.588;13.370;2023-07-02T02:06:37;17.80;99.90
9772;DHT22;4925;52.588;13.370;2023-07-02T02:09:04;17.70;99.90
9772;DHT22;4925;52.588;13.370;2023-07-02T02:11:33;17.70;99.90
9772;DHT22;4925;52.588;13.370;2023-07-02T02:14:00;17.70;99.90
9772;DHT22;4925;52.588;13.370;2023-07-02T02:16:27;17.80;99.90
9772;DHT22;4925;52.588;13.370;2023-07-02T02:18:53;17.80;99.90
9772;DHT22;4925;52.588;13.370;2023-07-02T02:21:19;17.80;99.90
9772;DHT22;4925;52.588;13.370;2023-07-02T02:23:46;17.70;99.90
9772;DHT22;4925;52.588;13.370;2023-07-02T02:26:11;17.70;99.90
9772;DHT22;4925;52.588;13.370;2023-07-02T02:28:37;17.70;99.90
9772;DHT22;4925;52.588;13.370;2023-07-02T02:31:03;17.70;99.90
9772;DHT22;4925;52.588;13.370;2023-07-02T02:33:29;17.60;99.90
9772;DHT22;4925;52.588;13.370;2023-07-02T02:35:55;17.50;99.90
9772;DHT22;4925;52.588;13.370;2023-07-02T02:38:21;17.60;99.90
9772;DHT22;4925;52.588;13.370;2023-07-02T02:40:46;17.50;99.90
9772;DHT22;4925;52.588;13.370;2023-07-02T02:43:12;17.60;99.90
9772;DHT22;4925;52.588;13.370;2023-07-02T02:45:38;17.50;99.90
9772;DHT22;4925;52.588;13.370;2023-07-02T02:48:04;17.50;99.90
9772;DHT22;4925;52.588;13.370;2023-07-02T02:50:30;17.50;99.90
9772;DHT22;4925;52.588;13.370;2023-07-02T02:52:56;17.50;99.90
9772;DHT22;4925;52.588;13.370;2023-07-02T02:55:21;17.50;99.90
9772;DHT22;4925;52.588;13.370;2023-07-02T02:57:47;17.60;99.90
9772;DHT22;4925;52.588;13.370;2023-07-02T03:00:13;17.50;99.90
9772;DHT22;4925;52.588;13.370;2023-07-02T03:02:39;17.50;99.90
9772;DHT22;4925;52.588;13.370;2023-07-02T03:05:05;17.50;99.90
9772;DHT22;4925;52.588;13.370;2023-07-02T03:07:32;17.40;99.90
9772;DHT22;4925;52.588;13.370;2023-07-02T03:09:58;17.40;99.90
9772;DHT22;4925;52.588;13.370;2023-07-02T03:12:26;17.30;99.90
9772;DHT22;4925;52.588;13.370;2023-07-02T03:14:51;17.30;99.90
9772;DHT22;4925;52.588;13.370;2023-07-02T03:17:20;17.20;99.90
9772;DHT22;4925;52.588;13.370;2023-07-02T03:19:46;17.10;99.90
9772;DHT22;4925;52.588;13.370;2023-07-02T03:22:12;17.10;99.90
9772;DHT22;4925;52.588;13.370;2023-07-02T03:24:38;17.10;99.90
9772;DHT22;4925;52.588;13.370;2023-07-02T03:27:03;17.00;99.90
9772;DHT22;4925;52.588;13.370;2023-07-02T03:29:29;17.10;99.90
9772;DHT22;4925;52.588;13.370;2023-07-02T03:31:55;17.10;99.90
9772;DHT22;4925;52.588;13.370;2023-07-02T03:34:21;17.10;99.90
9772;DHT22;4925;52.588;13.370;2023-07-02T03:36:51;17.10;99.90
9772;DHT22;4925;52.588;13.370;2023-07-02T03:39:16;17.20;99.90
9772;DHT22;4925;52.588;13.370;2023-07-02T03:41:43;17.20;99.90
9772;DHT22;4925;52.588;13.370;2023-07-02T03:44:09;17.20;99.90
9772;DHT22;4925;52.588;13.370;2023-07-02T03:46:35;17.30;99.90
9772;DHT22;4925;52.588;13.370;2023-07-02T03:49:04;17.20;99.90
9772;DHT22;4925;52.588;13.370;2023-07-02T03:51:31;17.20;99.90
9772;DHT22;4925;52.588;13.370;2023-07-02T03:54:00;17.10;99.90
9772;DHT22;4925;52.588;13.370;2023-07-02T03:56:26;17.10;99.90
9772;DHT22;4925;52.588;13.370;2023-07-02T03:58:52;17.10;99.90
9772;DHT22;4925;52.588;13.370;2023-07-02T04:01:18;17.10;99.90
9772;DHT22;4925;52.588;13.370;2023-07-02T04:03:53;17.10;99.90
9772;DHT22;4925;52.588;13.370;2023-07-02T04:06:19;17.10;99.90
9772;DHT22;4925;52.588;13.370;2023-07-02T04:08:45;17.20;99.90
9772;DHT22;4925;52.588;13.370;2023-07-02T04:11:11;17.30;99.90
9772;DHT22;4925;52.588;13.370;2023-07-02T04:13:38;17.30;99.90
9772;DHT22;4925;52.588;13.370;2023-07-02T04:16:04;17.30;99.90
9772;DHT22;4925;52.588;13.370;2023-07-02T04:18:30;17.30;99.90
9772;DHT22;4925;52.588;13.370;2023-07-02T04:20:56;17.30;99.90
9772;DHT22;4925;52.588;13.370;2023-07-02T04:23:22;17.30;99.90
9772;DHT22;4925;52.588;13.370;2023-07-02T04:25:47;17.30;99.90
9772;DHT22;4925;52.588;13.370;2023-07-02T04:28:13;17.40;99.90
9772;DHT22;4925;52.588;13.370;2023-07-02T04:30:39;17.40;99.90
9772;DHT22;4925;52.588;13.370;2023-07-02T04:33:05;17.30;99.90
9772;DHT22;4925;52.588;13.370;2023-07-02T04:35:33;17.30;99.90
9772;DHT22;4925;52.588;13.370;2023-07-02T04:38:00;17.30;99.90
9772;DHT22;4925;52.588;13.370;2023-07-02T04:40:26;17.30;99.90
9772;DHT22;4925;52.588;13.370;2023-07-02T04:42:52;17.40;99.90
9772;DHT22;4925;52.588;13.370;2023-07-02T04:45:27;17.50;99.90
9772;DHT22;4925;52.588;13.370;2023-07-02T04:47:57;17.40;99.90
9772;DHT22;4925;52.588;13.370;2023-07-02T04:50:23;17.50;99.90
9772;DHT22;4925;52.588;13.370;2023-07-02T04:52:49;17.50;99.90
9772;DHT22;4925;52.588;13.370;2023-07-02T04:55:14;17.40;99.90
9772;DHT22;4925;52.588;13.370;2023-07-02T04:57:40;17.50;99.90
9772;DHT22;4925;52.588;13.370;2023-07-02T05:00:06;17.50;99.90
9772;DHT22;4925;52.588;13.370;2023-07-02T05:02:33;17.50;99.90
9772;DHT22;4925;52.588;13.370;2023-07-02T05:04:59;17.50;99.90
9772;DHT22;4925;52.588;13.370;2023-07-02T05:07:25;17.60;99.90
9772;DHT22;4925;52.588;13.370;2023-07-02T05:09:50;17.60;99.90
9772;DHT22;4925;52.588;13.370;2023-07-02T05:12:19;17.60;99.90
9772;DHT22;4925;52.588;13.370;2023-07-02T05:14:44;17.60;99.90
9772;DHT22;4925;52.588;13.370;2023-07-02T05:17:10;17.60;99.90
9772;DHT22;4925;52.588;13.370;2023-07-02T05:19:36;17.60;99.90
9772;DHT22;4925;52.588;13.370;2023-07-02T05:22:02;17.60;99.90
9772;DHT22;4925;52.588;13.370;2023-07-02T05:24:28;17.70;99.90
9772;DHT22;4925;52.588;13.370;2023-07-02T05:26:53;17.70;99.90
9772;DHT22;4925;52.588;13.370;2023-07-02T05:29:19;17.70;99.90
9772;DHT22;4925;52.588;13.370;2023-07-02T05:31:45;17.80;99.90
9772;DHT22;4925;52.588;13.370;2023-07-02T05:34:10;17.80;99.90
9772;DHT22;4925;52.588;13.370;2023-07-02T05:36:37;17.90;99.90
9772;DHT22;4925;52.588;13.370;2023-07-02T05:39:03;17.90;99.90
9772;DHT22;4925;52.588;13.370;2023-07-02T05:41:28;18.00;99.90
9772;DHT22;4925;52.588;13.370;2023-07-02T05:43:59;18.00;99.90
9772;DHT22;4925;52.588;13.370;2023-07-02T05:46:25;18.10;99.90
9772;DHT22;4925;52.588;13.370;2023-07-02T05:48:50;18.30;99.90
9772;DHT22;4925;52.588;13.370;2023-07-02T05:51:23;18.40;99.90
9772;DHT22;4925;52.588;13.370;2023-07-02T05:53:50;18.40;99.90
9772;DHT22;4925;52.588;13.370;2023-07-02T05:56:16;18.50;99.90
9772;DHT22;4925;52.588;13.370;2023-07-02T05:58:42;18.50;99.90
9772;DHT22;4925;52.588;13.370;2023-07-02T06:01:08;18.50;99.90
9772;DHT22;4925;52.588;13.370;2023-07-02T06:03:34;18.40;99.90
9772;DHT22;4925;52.588;13.370;2023-07-02T06:05:59;18.50;99.90
9772;DHT22;4925;52.588;13.370;2023-07-02T06:08:25;18.50;99.90
9772;DHT22;4925;52.588;13.370;2023-07-02T06:10:51;18.70;99.90
9772;DHT22;4925;52.588;13.370;2023-07-02T06:13:17;18.70;99.90
9772;DHT22;4925;52.588;13.370;2023-07-02T06:15:43;18.70;99.90
9772;DHT22;4925;52.588;13.370;2023-07-02T06:18:09;18.60;99.90
9772;DHT22;4925;52.588;13.370;2023-07-02T06:20:34;18.60;99.90
9772;DHT22;4925;52.588;13.370;2023-07-02T06:23:00;18.60;99.90
9772;DHT22;4925;52.588;13.370;2023-07-02T06:25:26;18.50;99.90
9772;DHT22;4925;52.588;13.370;2023-07-02T06:27:53;18.50;99.90
9772;DHT22;4925;52.588;13.370;2023-07-02T06:30:21;18.50;99.90
9772;DHT22;4925;52.588;13.370;2023-07-02T06:32:47;18.70;99.90
9772;DHT22;4925;52.588;13.370;2023-07-02T06:35:13;18.70;99.90
9772;DHT22;4925;52.588;13.370;2023-07-02T06:37:38;18.80;99.90
9772;DHT22;4925;52.588;13.370;2023-07-02T06:40:05;18.80;99.90
9772;DHT22;4925;52.588;13.370;2023-07-02T06:42:31;19.00;99.90
9772;DHT22;4925;52.588;13.370;2023-07-02T06:44:58;19.20;99.90
9772;DHT22;4925;52.588;13.370;2023-07-02T06:47:24;19.40;99.90
9772;DHT22;4925;52.588;13.370;2023-07-02T06:49:52;19.40;99.90
9772;DHT22;4925;52.588;13.370;2023-07-02T06:52:17;19.50;99.90
9772;DHT22;4925;52.588;13.370;2023-07-02T06:54:43;19.60;99.90
9772;DHT22;4925;52.588;13.370;2023-07-02T06:57:09;19.80;99.90
9772;DHT22;4925;52.588;13.370;2023-07-02T06:59:34;19.80;99.90
9772;DHT22;4925;52.588;13.370;2023-07-02T07:02:01;19.90;99.90
9772;DHT22;4925;52.588;13.370;2023-07-02T07:04:27;19.80;87.20
9772;DHT22;4925;52.588;13.370;2023-07-02T07:06:53;19.80;77.70
9772;DHT22;4925;52.588;13.370;2023-07-02T07:09:21;19.80;96.70
9772;DHT22;4925;52.588;13.370;2023-07-02T07:11:46;19.90;99.60
9772;DHT22;4925;52.588;13.370;2023-07-02T07:14:12;19.80;84.30
9772;DHT22;4925;52.588;13.370;2023-07-02T07:16:38;19.80;90.50
9772;DHT22;4925;52.588;13.370;2023-07-02T07:19:04;19.90;47.10
9772;DHT22;4925;52.588;13.370;2023-07-02T07:21:29;20.10;64.00
9772;DHT22;4925;52.588;13.370;2023-07-02T07:23:55;20.20;66.80
9772;DHT22;4925;52.588;13.370;2023-07-02T07:26:21;20.10;37.60
9772;DHT22;4925;52.588;13.370;2023-07-02T07:28:46;20.10;33.20
9772;DHT22;4925;52.588;13.370;2023-07-02T07:31:12;20.10;38.20
9772;DHT22;4925;52.588;13.370;2023-07-02T07:33:38;20.10;23.90
9772;DHT22;4925;52.588;13.370;2023-07-02T07:36:04;20.30;39.80
9772;DHT22;4925;52.588;13.370;2023-07-02T07:38:30;20.10;1.00
9772;DHT22;4925;52.588;13.370;2023-07-02T07:40:55;19.90;24.50
9772;DHT22;4925;52.588;13.370;2023-07-02T07:43:21;20.00;39.20
9772;DHT22;4925;52.588;13.370;2023-07-02T07:45:47;20.20;12.60
9772;DHT22;4925;52.588;13.370;2023-07-02T07:48:12;20.10;1.00
9772;DHT22;4925;52.588;13.370;2023-07-02T07:50:38;20.10;16.50
9772;DHT22;4925;52.588;13.370;2023-07-02T07:53:04;20.20;23.30
9772;DHT22;4925;52.588;13.370;2023-07-02T07:55:29;19.90;21.80
9772;DHT22;4925;52.588;13.370;2023-07-02T07:57:55;19.90;25.40
9772;DHT22;4925;52.588;13.370;2023-07-02T08:00:21;19.90;33.60
9772;DHT22;4925;52.588;13.370;2023-07-02T08:02:47;19.80;46.40
9772;DHT22;4925;52.588;13.370;2023-07-02T08:05:12;19.70;56.10
9772;DHT22;4925;52.588;13.370;2023-07-02T08:07:39;19.60;76.70
9772;DHT22;4925;52.588;13.370;2023-07-02T08:10:06;19.60;76.30
9772;DHT22;4925;52.588;13.370;2023-07-02T08:12:33;19.60;82.70
9772;DHT22;4925;52.588;13.370;2023-07-02T08:14:59;19.70;80.70
9772;DHT22;4925;52.588;13.370;2023-07-02T08:17:25;19.70;90.50
9772;DHT22;4925;52.588;13.370;2023-07-02T08:19:50;19.70;94.50
9772;DHT22;4925;52.588;13.370;2023-07-02T08:22:16;19.60;91.40
9772;DHT22;4925;52.588;13.370;2023-07-02T08:24:42;19.70;93.60
9772;DHT22;4925;52.588;13.370;2023-07-02T08:27:08;19.70;97.70
9772;DHT22;4925;52.588;13.370;2023-07-02T08:29:34;19.80;98.20
9772;DHT22;4925;52.588;13.370;2023-07-02T08:32:00;19.70;75.40
9772;DHT22;4925;52.588;13.370;2023-07-02T08:34:25;19.60;79.70
9772;DHT22;4925;52.588;13.370;2023-07-02T08:36:51;19.60;84.70
9772;DHT22;4925;52.588;13.370;2023-07-02T08:39:17;19.60;76.30
9772;DHT22;4925;52.588;13.370;2023-07-02T08:44:11;19.60;58.60
9772;DHT22;4925;52.588;13.370;2023-07-02T08:46:37;19.50;63.20
9772;DHT22;4925;52.588;13.370;2023-07-02T08:49:03;19.60;55.10
9772;DHT22;4925;52.588;13.370;2023-07-02T08:51:29;19.50;47.50
9772;DHT22;4925;52.588;13.370;2023-07-02T08:53:54;19.30;46.80
9772;DHT22;4925;52.588;13.370;2023-07-02T08:56:20;19.30;43.60
9772;DHT22;4925;52.588;13.370;2023-07-02T08:58:46;19.30;39.00
9772;DHT22;4925;52.588;13.370;2023-07-02T09:01:13;19.40;45.40
9772;DHT22;4925;52.588;13.370;2023-07-02T09:03:40;19.50;30.60
9772;DHT22;4925;52.588;13.370;2023-07-02T09:06:07;19.60;26.80
9772;DHT22;4925;52.588;13.370;2023-07-02T09:08:34;19.60;1.00
9772;DHT22;4925;52.588;13.370;2023-07-02T09:11:16;19.50;1.00
9772;DHT22;4925;52.588;13.370;2023-07-02T09:13:52;19.50;1.00
9772;DHT22;4925;52.588;13.370;2023-07-02T09:16:27;19.50;1.00
9772;DHT22;4925;52.588;13.370;2023-07-02T09:21:44;20.00;1.00
9772;DHT22;4925;52.588;13.370;2023-07-02T09:26:49;20.00;1.00
9772;DHT22;4925;52.588;13.370;2023-07-02T09:29:31;20.20;1.00
9772;DHT22;4925;52.588;13.370;2023-07-02T09:32:04;20.10;1.00
9772;DHT22;4925;52.588;13.370;2023-07-02T09:34:34;20.30;1.00
9772;DHT22;4925;52.588;13.370;2023-07-02T09:37:01;20.60;1.00
9772;DHT22;4925;52.588;13.370;2023-07-02T09:39:30;20.60;1.00
9772;DHT22;4925;52.588;13.370;2023-07-02T09:41:58;20.70;1.00
9772;DHT22;4925;52.588;13.370;2023-07-02T09:44:31;20.60;99.90
9772;DHT22;4925;52.588;13.370;2023-07-02T09:47:08;20.50;1.00
9772;DHT22;4925;52.588;13.370;2023-07-02T09:49:37;20.60;1.00
9772;DHT22;4925;52.588;13.370;2023-07-02T09:52:07;20.90;99.90
9772;DHT22;4925;52.588;13.370;2023-07-02T09:54:33;21.10;99.90
9772;DHT22;4925;52.588;13.370;2023-07-02T09:56:59;21.00;1.00
9772;DHT22;4925;52.588;13.370;2023-07-02T09:59:25;21.00;77.50
9772;DHT22;4925;52.588;13.370;2023-07-02T10:01:51;21.30;99.90
9772;DHT22;4925;52.588;13.370;2023-07-02T10:04:19;21.10;1.00
9772;DHT22;4925;52.588;13.370;2023-07-02T10:06:51;21.30;99.90
9772;DHT22;4925;52.588;13.370;2023-07-02T10:09:19;21.40;99.90
9772;DHT22;4925;52.588;13.370;2023-07-02T10:11:46;21.40;99.90
9772;DHT22;4925;52.588;13.370;2023-07-02T10:14:12;21.70;99.90
9772;DHT22;4925;52.588;13.370;2023-07-02T10:16:53;21.80;1.00
9772;DHT22;4925;52.588;13.370;2023-07-02T10:19:19;22.10;99.90
9772;DHT22;4925;52.588;13.370;2023-07-02T10:21:45;21.90;1.00
9772;DHT22;4925;52.588;13.370;2023-07-02T10:24:15;21.80;1.00
9772;DHT22;4925;52.588;13.370;2023-07-02T10:26:58;21.80;1.00
9772;DHT22;4925;52.588;13.370;2023-07-02T10:29:25;22.00;1.00
9772;DHT22;4925;52.588;13.370;2023-07-02T10:31:53;22.00;1.00
9772;DHT22;4925;52.588;13.370;2023-07-02T10:34:32;22.10;99.90
9772;DHT22;4925;52.588;13.370;2023-07-02T10:37:01;22.00;99.90
9772;DHT22;4925;52.588;13.370;2023-07-02T10:39:27;21.90;1.00
9772;DHT22;4925;52.588;13.370;2023-07-02T10:42:03;22.00;1.00
9772;DHT22;4925;52.588;13.370;2023-07-02T10:44:29;21.80;1.00
9772;DHT22;4925;52.588;13.370;2023-07-02T10:46:55;21.60;85.10
9772;DHT22;4925;52.588;13.370;2023-07-02T10:49:33;21.60;99.90
9772;DHT22;4925;52.588;13.370;2023-07-02T10:51:59;21.70;1.00
9772;DHT22;4925;52.588;13.370;2023-07-02T10:54:25;21.50;99.90
9772;DHT22;4925;52.588;13.370;2023-07-02T10:56:57;21.60;31.70
9772;DHT22;4925;52.588;13.370;2023-07-02T10:59:25;21.70;99.90
9772;DHT22;4925;52.588;13.370;2023-07-02T11:01:51;21.60;1.00
9772;DHT22;4925;52.588;13.370;2023-07-02T11:04:17;21.50;1.00
9772;DHT22;4925;52.588;13.370;2023-07-02T11:06:43;21.40;99.90
9772;DHT22;4925;52.588;13.370;2023-07-02T11:09:16;21.40;99.90
9772;DHT22;4925;52.588;13.370;2023-07-02T11:11:57;21.70;1.00
9772;DHT22;4925;52.588;13.370;2023-07-02T11:14:31;22.10;99.90
9772;DHT22;4925;52.588;13.370;2023-07-02T11:16:58;22.40;99.90
9772;DHT22;4925;52.588;13.370;2023-07-02T11:19:24;22.80;99.90
9772;DHT22;4925;52.588;13.370;2023-07-02T11:21:51;23.20;1.00
9772;DHT22;4925;52.588;13.370;2023-07-02T11:24:27;23.50;1.00
9772;DHT22;4925;52.588;13.370;2023-07-02T11:26:53;23.90;99.90
9772;DHT22;4925;52.588;13.370;2023-07-02T11:29:19;24.10;1.00
9772;DHT22;4925;52.588;13.370;2023-07-02T11:31:44;23.90;99.90
9772;DHT22;4925;52.588;13.370;2023-07-02T11:34:14;24.20;99.90
9772;DHT22;4925;52.588;13.370;2023-07-02T11:36:40;23.90;99.90
9772;DHT22;4925;52.588;13.370;2023-07-02T11:39:06;24.00;57.00
9772;DHT22;4925;52.588;13.370;2023-07-02T11:41:42;24.60;1.50
9772;DHT22;4925;52.588;13.370;2023-07-02T11:44:08;24.20;1.00
9772;DHT22;4925;52.588;13.370;2023-07-02T11:46:34;24.10;1.00
9772;DHT22;4925;52.588;13.370;2023-07-02T11:49:00;23.80;1.00
9772;DHT22;4925;52.588;13.370;2023-07-02T11:51:26;23.90;1.00
9772;DHT22;4925;52.588;13.370;2023-07-02T11:53:52;24.00;1.00
9772;DHT22;4925;52.588;13.370;2023-07-02T11:56:18;24.10;1.00
9772;DHT22;4925;52.588;13.370;2023-07-02T11:58:43;24.60;1.00
9772;DHT22;4925;52.588;13.370;2023-07-02T12:01:09;24.90;1.00
9772;DHT22;4925;52.588;13.370;2023-07-02T12:03:35;25.20;1.00
9772;DHT22;4925;52.588;13.370;2023-07-02T12:06:00;25.50;1.00
9772;DHT22;4925;52.588;13.370;2023-07-02T12:08:26;25.60;99.90
9772;DHT22;4925;52.588;13.370;2023-07-02T12:10:52;25.20;99.90
9772;DHT22;4925;52.588;13.370;2023-07-02T12:13:17;24.40;1.00
9772;DHT22;4925;52.588;13.370;2023-07-02T12:15:43;24.10;1.00
9772;DHT22;4925;52.588;13.370;2023-07-02T12:18:09;24.00;1.00
9772;DHT22;4925;52.588;13.370;2023-07-02T12:20:35;23.90;23.10
9772;DHT22;4925;52.588;13.370;2023-07-02T12:23:01;23.60;43.90
9772;DHT22;4925;52.588;13.370;2023-07-02T12:25:27;23.60;99.90
9772;DHT22;4925;52.588;13.370;2023-07-02T12:27:53;23.50;99.90
9772;DHT22;4925;52.588;13.370;2023-07-02T12:30:19;23.40;99.90
9772;DHT22;4925;52.588;13.370;2023-07-02T12:32:44;23.40;99.90
9772;DHT22;4925;52.588;13.370;2023-07-02T12:35:11;23.40;99.90
9772;DHT22;4925;52.588;13.370;2023-07-02T12:37:47;23.60;99.90
9772;DHT22;4925;52.588;13.370;2023-07-02T12:40:13;23.60;99.90
9772;DHT22;4925;52.588;13.370;2023-07-02T12:42:41;23.90;99.90
9772;DHT22;4925;52.588;13.370;2023-07-02T12:45:07;24.20;99.90
9772;DHT22;4925;52.588;13.370;2023-07-02T12:47:33;24.60;99.90
9772;DHT22;4925;52.588;13.370;2023-07-02T12:49:59;24.70;99.90
9772;DHT22;4925;52.588;13.370;2023-07-02T12:52:25;24.50;6.60
9772;DHT22;4925;52.588;13.370;2023-07-02T12:54:50;24.30;1.00
9772;DHT22;4925;52.588;13.370;2023-07-02T12:57:17;24.10;1.00
9772;DHT22;4925;52.588;13.370;2023-07-02T12:59:43;23.80;57.50
9772;DHT22;4925;52.588;13.370;2023-07-02T13:02:10;23.60;99.30
9772;DHT22;4925;52.588;13.370;2023-07-02T13:04:36;23.40;99.90
9772;DHT22;4925;52.588;13.370;2023-07-02T13:07:02;23.50;99.90
9772;DHT22;4925;52.588;13.370;2023-07-02T13:09:27;23.20;99.90
9772;DHT22;4925;52.588;13.370;2023-07-02T13:11:53;22.80;99.90
9772;DHT22;4925;52.588;13.370;2023-07-02T13:14:19;23.00;99.90
9772;DHT22;4925;52.588;13.370;2023-07-02T13:16:45;23.10;99.90
9772;DHT22;4925;52.588;13.370;2023-07-02T13:19:11;23.50;99.90
9772;DHT22;4925;52.588;13.370;2023-07-02T13:21:37;23.80;99.90
9772;DHT22;4925;52.588;13.370;2023-07-02T13:24:03;23.90;55.00
9772;DHT22;4925;52.588;13.370;2023-07-02T13:26:28;24.10;1.00
9772;DHT22;4925;52.588;13.370;2023-07-02T13:28:54;24.10;1.00
9772;DHT22;4925;52.588;13.370;2023-07-02T13:31:20;24.10;1.00
9772;DHT22;4925;52.588;13.370;2023-07-02T13:33:45;24.10;1.00
9772;DHT22;4925;52.588;13.370;2023-07-02T13:36:12;23.90;1.00
9772;DHT22;4925;52.588;13.370;2023-07-02T13:38:37;23.90;1.00
9772;DHT22;4925;52.588;13.370;2023-07-02T13:41:04;23.90;1.00
9772;DHT22;4925;52.588;13.370;2023-07-02T13:43:30;23.70;1.00
9772;DHT22;4925;52.588;13.370;2023-07-02T13:45:56;23.90;1.00
9772;DHT22;4925;52.588;13.370;2023-07-02T13:48:22;24.10;1.00
9772;DHT22;4925;52.588;13.370;2023-07-02T13:50:48;24.10;1.00
9772;DHT22;4925;52.588;13.370;2023-07-02T13:53:22;24.20;1.00
9772;DHT22;4925;52.588;13.370;2023-07-02T13:55:48;24.20;1.00
9772;DHT22;4925;52.588;13.370;2023-07-02T13:58:13;24.20;1.00
9772;DHT22;4925;52.588;13.370;2023-07-02T14:00:39;23.80;1.00
9772;DHT22;4925;52.588;13.370;2023-07-02T14:03:06;23.70;1.00
9772;DHT22;4925;52.588;13.370;2023-07-02T14:05:32;23.50;1.00
9772;DHT22;4925;52.588;13.370;2023-07-02T14:07:58;23.50;1.00
9772;DHT22;4925;52.588;13.370;2023-07-02T14:10:23;23.60;1.00
9772;DHT22;4925;52.588;13.370;2023-07-02T14:12:49;23.80;1.00
9772;DHT22;4925;52.588;13.370;2023-07-02T14:15:15;23.90;1.00
9772;DHT22;4925;52.588;13.370;2023-07-02T14:17:40;23.90;1.00
9772;DHT22;4925;52.588;13.370;2023-07-02T14:20:07;23.80;1.00
9772;DHT22;4925;52.588;13.370;2023-07-02T14:22:34;23.90;1.00
9772;DHT22;4925;52.588;13.370;2023-07-02T14:24:59;23.80;1.00
9772;DHT22;4925;52.588;13.370;2023-07-02T14:27:25;24.00;1.00
9772;DHT22;4925;52.588;13.370;2023-07-02T14:29:50;23.90;1.00
9772;DHT22;4925;52.588;13.370;2023-07-02T14:32:16;24.00;1.00
9772;DHT22;4925;52.588;13.370;2023-07-02T14:34:42;23.90;1.00
9772;DHT22;4925;52.588;13.370;2023-07-02T14:37:08;23.70;1.00
9772;DHT22;4925;52.588;13.370;2023-07-02T14:39:34;23.60;1.00
9772;DHT22;4925;52.588;13.370;2023-07-02T14:42:00;23.30;1.00
9772;DHT22;4925;52.588;13.370;2023-07-02T14:44:25;23.30;1.00
9772;DHT22;4925;52.588;13.370;2023-07-02T14:46:51;23.30;1.00
9772;DHT22;4925;52.588;13.370;2023-07-02T14:49:17;23.20;1.00
9772;DHT22;4925;52.588;13.370;2023-07-02T14:51:43;23.10;1.00
9772;DHT22;4925;52.588;13.370;2023-07-02T14:54:09;23.30;1.00
9772;DHT22;4925;52.588;13.370;2023-07-02T14:56:35;23.50;1.00
9772;DHT22;4925;52.588;13.370;2023-07-02T14:59:04;23.60;1.00
9772;DHT22;4925;52.588;13.370;2023-07-02T15:01:32;23.70;1.00
9772;DHT22;4925;52.588;13.370;2023-07-02T15:03:58;23.60;1.00
9772;DHT22;4925;52.588;13.370;2023-07-02T15:06:24;23.50;1.00
9772;DHT22;4925;52.588;13.370;2023-07-02T15:08:50;23.70;1.00
9772;DHT22;4925;52.588;13.370;2023-07-02T15:11:17;23.80;1.00
9772;DHT22;4925;52.588;13.370;2023-07-02T15:13:43;23.90;1.00
9772;DHT22;4925;52.588;13.370;2023-07-02T15:16:11;23.80;1.00
9772;DHT22;4925;52.588;13.370;2023-07-02T15:18:37;23.90;1.00
9772;DHT22;4925;52.588;13.370;2023-07-02T15:21:03;23.80;1.00
9772;DHT22;4925;52.588;13.370;2023-07-02T15:23:29;23.80;1.00
9772;DHT22;4925;52.588;13.370;2023-07-02T15:26:02;23.50;1.00
9772;DHT22;4925;52.588;13.370;2023-07-02T15:28:29;23.40;1.00
9772;DHT22;4925;52.588;13.370;2023-07-02T15:30:58;23.50;1.00
9772;DHT22;4925;52.588;13.370;2023-07-02T15:33:24;23.20;1.00
9772;DHT22;4925;52.588;13.370;2023-07-02T15:35:50;23.30;1.00
9772;DHT22;4925;52.588;13.370;2023-07-02T15:38:17;23.50;36.90
9772;DHT22;4925;52.588;13.370;2023-07-02T15:40:45;23.50;7.30
9772;DHT22;4925;52.588;13.370;2023-07-02T15:43:11;23.50;1.00
9772;DHT22;4925;52.588;13.370;2023-07-02T15:45:36;23.20;1.00
9772;DHT22;4925;52.588;13.370;2023-07-02T15:48:02;23.20;1.00
9772;DHT22;4925;52.588;13.370;2023-07-02T15:50:28;23.20;1.00
9772;DHT22;4925;52.588;13.370;2023-07-02T15:52:54;23.20;1.00
9772;DHT22;4925;52.588;13.370;2023-07-02T15:55:20;23.20;1.00